Time;durP1;ratioP1;P1;durP2;ratioP2;P2;SDS_P1;SDS_P2;PMS_P1;PMS_P2;Temp;Humidity;BMP_temperature;BMP_pressure;BME280_temperature;BME280_humidity;BME280_pressure;Samples;Min_cycle;Max_cycle;Signal;HPM_P1;HPM_P2
2022/08/16 00:00:28;;;;;;;5.30;4.70;;;;;;;21.71;61.92;98786.97;4960071;28;20457;-76
2022/08/16 00:02:55;;;;;;;6.87;5.37;;;;;;;21.69;61.79;98791.69;4956821;28;20479;-76
2022/08/16 00:05:23;;;;;;;8.20;5.20;;;;;;;21.66;61.97;98787.56;4960533;28;20990;-76
2022/08/16 00:07:49;;;;;;;5.20;4.70;;;;;;;21.63;61.75;98787.94;4959374;28;20801;-76
2022/08/16 00:10:16;;;;;;;5.47;5.03;;;;;;;21.62;61.99;98791.59;4963257;28;20538;-76
2022/08/16 00:12:42;;;;;;;7.80;4.80;;;;;;;21.61;61.79;98792.63;4959204;28;20439;-76
2022/08/16 00:15:15;;;;;;;5.40;4.57;;;;;;;21.61;61.72;98795.31;4958774;28;20451;-76
2022/08/16 00:17:41;;;;;;;5.20;4.60;;;;;;;21.61;61.75;98792.63;4960603;28;20549;-76
2022/08/16 00:20:08;;;;;;;5.93;5.33;;;;;;;21.59;61.88;98798.16;4958213;28;20566;-76
2022/08/16 00:22:36;;;;;;;9.73;4.97;;;;;;;21.61;61.75;98795.31;4958198;28;20876;-76
2022/08/16 00:25:02;;;;;;;5.97;4.33;;;;;;;21.59;61.88;98803.50;4958483;28;20519;-76
2022/08/16 00:27:27;;;;;;;5.60;5.10;;;;;;;21.57;62.11;98816.22;4958138;28;20506;-76
2022/08/16 00:29:53;;;;;;;7.53;5.33;;;;;;;21.52;62.34;98809.78;4975199;28;20530;-76
2022/08/16 00:32:19;;;;;;;5.73;5.10;;;;;;;21.48;62.30;98806.66;4958178;28;20635;-76
2022/08/16 00:34:45;;;;;;;9.20;6.50;;;;;;;21.39;63.04;98811.28;4958104;28;20247;-76
2022/08/16 00:37:12;;;;;;;5.13;4.70;;;;;;;21.29;63.29;98808.03;4957809;28;20206;-76
2022/08/16 00:39:37;;;;;;;5.80;5.17;;;;;;;21.22;63.57;98807.13;4962203;28;20479;-76
2022/08/16 00:42:03;;;;;;;5.10;4.57;;;;;;;21.17;63.87;98804.16;4958331;28;20557;-76
2022/08/16 00:44:28;;;;;;;7.43;5.70;;;;;;;21.15;63.64;98799.03;4958082;28;20220;-76
2022/08/16 00:47:00;;;;;;;5.10;4.60;;;;;;;21.16;63.79;98806.00;4975234;28;20264;-76
2022/08/16 00:49:26;;;;;;;6.60;4.93;;;;;;;21.17;63.89;98806.84;4957961;28;20691;-76
2022/08/16 00:51:52;;;;;;;7.00;4.63;;;;;;;21.19;63.95;98802.16;4958430;28;20507;-76
2022/08/16 00:54:18;;;;;;;8.10;5.60;;;;;;;21.22;63.95;98801.78;4955985;28;20448;-76
2022/08/16 00:56:47;;;;;;;5.77;5.27;;;;;;;21.24;63.79;98804.28;4957778;28;20483;-76
2022/08/16 00:59:14;;;;;;;5.67;5.00;;;;;;;21.26;63.61;98803.06;4960086;28;20539;-76
2022/08/16 01:01:42;;;;;;;6.57;5.82;;;;;;;21.27;63.84;98791.38;4958672;28;21170;-76
2022/08/16 01:04:08;;;;;;;6.47;5.87;;;;;;;21.27;64.01;98802.03;4959446;28;20212;-76
2022/08/16 01:06:34;;;;;;;6.70;5.33;;;;;;;21.27;63.90;98794.03;4956659;28;20469;-76
2022/08/16 01:09:04;;;;;;;5.33;4.83;;;;;;;21.28;63.96;98787.69;4957708;28;20455;-76
2022/08/16 01:11:30;;;;;;;7.47;6.87;;;;;;;21.26;64.01;98789.72;4958342;28;20465;-76
2022/08/16 01:14:04;;;;;;;6.53;5.93;;;;;;;21.22;64.20;98796.44;4958970;28;20482;-76
2022/08/16 01:16:31;;;;;;;6.40;4.97;;;;;;;21.18;64.00;98795.16;4972312;28;20553;-76
2022/08/16 01:19:03;;;;;;;6.27;5.20;;;;;;;21.12;64.43;98795.91;4959612;28;20568;-76
2022/08/16 01:21:46;;;;;;;5.70;4.50;;;;;;;21.02;64.72;98790.84;4958406;28;20515;-75
2022/08/16 01:24:30;;;;;;;5.27;4.83;;;;;;;20.93;64.91;98794.63;4958884;28;20570;-76
2022/08/16 01:27:04;;;;;;;8.23;5.07;;;;;;;20.89;65.11;98799.47;4959449;28;20486;-76
2022/08/16 01:29:43;;;;;;;5.83;5.33;;;;;;;20.87;65.16;98790.81;4957647;28;20517;-76
2022/08/16 01:32:09;;;;;;;7.18;6.47;;;;;;;20.92;65.65;98793.78;4972640;28;20475;-76
2022/08/16 01:34:34;;;;;;;6.57;5.97;;;;;;;20.92;65.57;98795.63;4974211;28;20272;-76
2022/08/16 01:37:05;;;;;;;6.93;6.27;;;;;;;20.88;65.63;98803.19;4961117;28;20224;-76
2022/08/16 01:39:32;;;;;;;6.13;5.63;;;;;;;20.83;65.71;98805.56;4959518;28;20233;-76
2022/08/16 01:41:58;;;;;;;5.73;5.27;;;;;;;20.81;65.76;98804.09;4957549;28;20453;-76
2022/08/16 01:44:24;;;;;;;5.30;4.80;;;;;;;20.75;65.58;98802.97;4978169;28;20574;-76
2022/08/16 01:46:52;;;;;;;6.33;4.70;;;;;;;20.68;65.73;98810.03;4958654;28;21069;-76
2022/08/16 01:49:22;;;;;;;6.77;5.13;;;;;;;20.64;66.01;98808.78;4976683;28;20239;-75
2022/08/16 01:51:59;;;;;;;6.90;6.20;;;;;;;20.63;66.04;98802.59;4959424;28;20479;-75
2022/08/16 01:54:38;;;;;;;6.73;6.00;;;;;;;20.63;66.02;98804.44;4959668;28;20470;-75
2022/08/16 01:57:06;;;;;;;5.80;5.00;;;;;;;20.55;66.25;98803.50;4961325;28;20459;-75
2022/08/16 01:59:35;;;;;;;5.50;5.00;;;;;;;20.49;66.65;98800.69;4957825;28;20479;-75
2022/08/16 02:02:01;;;;;;;6.00;5.53;;;;;;;20.43;66.72;98799.56;4971749;28;20859;-75
2022/08/16 02:04:30;;;;;;;6.90;6.20;;;;;;;20.37;66.88;98810.97;4958403;28;20460;-75
2022/08/16 02:06:56;;;;;;;5.50;5.00;;;;;;;20.33;67.15;98802.53;4962139;28;20478;-75
2022/08/16 02:09:23;;;;;;;6.37;5.50;;;;;;;20.30;67.19;98804.69;4974679;28;20484;-76
2022/08/16 02:11:54;;;;;;;6.50;5.87;;;;;;;20.31;67.04;98804.53;4962053;28;20263;-75
2022/08/16 02:14:26;;;;;;;6.57;5.40;;;;;;;20.32;67.13;98800.00;4962120;28;20944;-75
2022/08/16 02:16:54;;;;;;;6.57;5.93;;;;;;;20.32;67.12;98803.50;4958406;28;20469;-76
2022/08/16 02:19:20;;;;;;;6.77;6.27;;;;;;;20.34;67.06;98798.81;4957979;28;20488;-75
2022/08/16 02:21:49;;;;;;;5.57;5.07;;;;;;;20.33;67.07;98797.19;4961803;28;20468;-75
2022/08/16 02:24:14;;;;;;;7.00;5.80;;;;;;;20.33;67.06;98796.31;4962078;28;20466;-76
2022/08/16 02:26:40;;;;;;;9.00;5.63;;;;;;;20.33;67.12;98801.66;4960473;28;20523;-76
2022/08/16 02:29:06;;;;;;;8.00;5.87;;;;;;;20.33;67.08;98801.66;4959862;28;20616;-76
2022/08/16 02:31:31;;;;;;;6.03;5.40;;;;;;;20.31;66.93;98793.03;4805277;28;5003367;-75
2022/08/16 02:33:56;;;;;;;5.87;5.37;;;;;;;20.31;66.92;98790.38;4976990;28;20202;-76
2022/08/16 02:36:31;;;;;;;9.30;5.07;;;;;;;20.26;67.00;98790.06;4978166;28;20201;-75
2022/08/16 02:38:57;;;;;;;6.63;5.97;;;;;;;20.22;66.95;98792.25;4976377;28;20866;-75
2022/08/16 02:41:23;;;;;;;6.57;5.97;;;;;;;20.21;67.21;98793.28;4960043;28;20454;-75
2022/08/16 02:43:48;;;;;;;7.77;5.67;;;;;;;20.20;67.07;98786.28;4961302;28;20879;-76
2022/08/16 02:46:13;;;;;;;7.37;5.80;;;;;;;20.19;67.00;98799.78;4957931;28;20210;-75
2022/08/16 02:48:39;;;;;;;6.30;5.60;;;;;;;20.17;67.05;98792.00;4958440;28;20271;-75
2022/08/16 02:51:08;;;;;;;8.03;5.67;;;;;;;20.15;67.05;98791.34;4960267;28;20205;-76
2022/08/16 02:53:36;;;;;;;6.33;5.73;;;;;;;20.13;67.18;98789.84;4975879;28;20814;-76
2022/08/16 02:56:02;;;;;;;9.03;6.37;;;;;;;20.10;67.28;98786.53;4972854;28;20473;-76
2022/08/16 02:58:32;;;;;;;6.33;5.83;;;;;;;20.10;67.26;98793.69;4961304;28;20949;-75
2022/08/16 03:00:59;;;;;;;20.83;7.47;;;;;;;20.09;67.23;98792.03;4959410;28;20461;-75
2022/08/16 03:03:27;;;;;;;6.95;6.35;;;;;;;20.11;67.41;98785.50;4974040;28;20498;-75
2022/08/16 03:05:53;;;;;;;9.53;5.63;;;;;;;20.09;67.31;98784.88;4959589;28;20633;-76
2022/08/16 03:08:21;;;;;;;6.70;6.10;;;;;;;20.05;67.49;98786.22;4957723;28;20561;-75
2022/08/16 03:10:48;;;;;;;6.67;5.90;;;;;;;20.00;67.40;98780.59;4958378;28;20982;-75
2022/08/16 03:13:16;;;;;;;9.50;6.40;;;;;;;19.95;67.45;98774.16;4975556;28;20524;-75
2022/08/16 03:15:43;;;;;;;6.60;6.10;;;;;;;19.91;67.73;98781.69;4958327;28;20472;-75
2022/08/16 03:18:09;;;;;;;7.17;6.47;;;;;;;19.83;67.60;98777.22;4958721;28;20562;-75
2022/08/16 03:20:35;;;;;;;6.40;5.80;;;;;;;19.76;67.74;98773.59;4959349;28;20558;-75
2022/08/16 03:23:03;;;;;;;8.47;5.20;;;;;;;19.74;67.91;98774.78;4960470;28;20237;-76
2022/08/16 03:25:29;;;;;;;9.27;5.93;;;;;;;19.73;68.07;98773.13;4973955;28;20464;-76
2022/08/16 03:28:00;;;;;;;6.10;5.60;;;;;;;19.73;68.01;98779.28;4972895;28;21003;-76
2022/08/16 03:30:28;;;;;;;6.63;6.03;;;;;;;19.72;67.73;98782.97;4962529;28;20995;-76
2022/08/16 03:32:58;;;;;;;6.93;6.20;;;;;;;19.70;68.04;98769.00;4959889;28;20487;-76
2022/08/16 03:35:29;;;;;;;5.80;5.30;;;;;;;19.70;68.14;98771.66;4967482;28;20232;-76
2022/08/16 03:37:57;;;;;;;6.93;5.80;;;;;;;19.68;68.23;98771.00;4952962;28;20852;-76
2022/08/16 03:40:27;;;;;;;6.17;5.57;;;;;;;19.60;68.29;98774.50;4953550;28;20886;-76
2022/08/16 03:42:53;;;;;;;6.33;5.70;;;;;;;19.56;68.50;98772.38;4957109;28;20487;-76
2022/08/16 03:45:19;;;;;;;6.37;5.77;;;;;;;19.50;68.24;98775.75;4955404;28;20199;-76
2022/08/16 03:47:46;;;;;;;6.83;5.90;;;;;;;19.37;68.51;98771.81;4955850;28;20280;-76
2022/08/16 03:50:13;;;;;;;7.43;6.63;;;;;;;19.32;68.60;98770.69;4955301;28;20476;-76
2022/08/16 03:52:40;;;;;;;8.13;6.60;;;;;;;19.32;68.82;98768.03;4957031;28;20504;-75
2022/08/16 03:55:08;;;;;;;9.70;8.80;;;;;;;19.34;68.40;98768.69;4962557;28;20475;-76
2022/08/16 03:57:34;;;;;;;11.47;10.37;;;;;;;19.33;68.44;98769.66;4957408;28;20454;-75
2022/08/16 04:00:00;;;;;;;15.27;12.90;;;;;;;19.33;68.58;98764.34;4960149;28;21041;-75
2022/08/16 04:02:27;;;;;;;13.82;12.43;;;;;;;19.33;68.37;98772.34;4957922;28;20490;-76
2022/08/16 04:04:53;;;;;;;11.13;10.03;;;;;;;19.33;68.52;98767.00;4975610;28;20817;-75
2022/08/16 04:07:19;;;;;;;11.93;10.77;;;;;;;19.32;68.52;98765.34;4956795;28;20228;-76
2022/08/16 04:09:45;;;;;;;12.53;11.20;;;;;;;19.31;68.38;98766.34;4958515;28;20484;-76
2022/08/16 04:12:11;;;;;;;15.03;13.57;;;;;;;19.29;68.39;98769.19;4956418;28;20465;-75
2022/08/16 04:14:39;;;;;;;14.60;13.20;;;;;;;19.27;68.59;98757.06;4959983;28;20215;-76
2022/08/16 04:17:04;;;;;;;9.13;8.23;;;;;;;19.26;68.63;98760.75;4957126;28;20473;-75
2022/08/16 04:19:35;;;;;;;9.27;8.47;;;;;;;19.22;68.60;98760.22;4974132;28;20228;-76
2022/08/16 04:22:01;;;;;;;10.57;9.67;;;;;;;19.20;68.47;98754.28;4959654;28;20488;-76
2022/08/16 04:24:32;;;;;;;9.17;8.30;;;;;;;19.17;68.81;98771.44;4960055;28;20871;-75
2022/08/16 04:26:58;;;;;;;8.07;7.33;;;;;;;19.16;68.59;98769.75;4958928;28;20966;-76
2022/08/16 04:29:23;;;;;;;7.17;6.57;;;;;;;19.14;68.49;98774.41;4957075;28;20534;-76
2022/08/16 04:31:50;;;;;;;8.63;7.73;;;;;;;19.15;68.44;98776.09;4957001;28;20264;-75
2022/08/16 04:34:16;;;;;;;7.90;6.90;;;;;;;19.16;68.35;98777.72;4958527;28;20201;-76
2022/08/16 04:36:44;;;;;;;7.20;6.50;;;;;;;19.18;68.46;98785.56;4971834;28;20466;-75
2022/08/16 04:39:09;;;;;;;8.00;7.23;;;;;;;19.17;68.36;98784.75;4974919;28;20584;-76
2022/08/16 04:41:36;;;;;;;7.00;6.30;;;;;;;19.16;68.13;98775.06;4957973;28;20219;-76
2022/08/16 04:44:02;;;;;;;8.40;6.90;;;;;;;19.13;68.15;98782.59;4959809;28;20495;-76
2022/08/16 04:46:28;;;;;;;6.73;6.10;;;;;;;19.09;68.33;98779.44;4944295;28;20256;-76
2022/08/16 04:48:53;;;;;;;7.60;6.07;;;;;;;19.09;68.06;98782.09;4956593;28;21005;-76
2022/08/16 04:51:19;;;;;;;7.33;6.27;;;;;;;19.09;68.21;98782.09;4959623;28;20737;-76
2022/08/16 04:53:47;;;;;;;7.97;7.07;;;;;;;19.10;67.93;98777.59;4955529;28;20204;-76
2022/08/16 04:56:16;;;;;;;9.13;6.30;;;;;;;19.13;67.88;98785.25;4955267;28;20562;-76
2022/08/16 04:58:42;;;;;;;7.67;7.07;;;;;;;19.14;67.77;98781.56;4966476;28;20510;-76
2022/08/16 05:01:07;;;;;;;6.80;6.20;;;;;;;19.20;67.67;98791.56;4968245;28;20606;-76
2022/08/16 05:03:33;;;;;;;7.90;7.20;;;;;;;19.28;68.01;98788.00;4967773;28;20499;-76
2022/08/16 05:05:59;;;;;;;8.53;6.83;;;;;;;19.37;67.89;98787.78;4955985;28;20589;-76
2022/08/16 05:08:27;;;;;;;7.37;6.67;;;;;;;19.58;67.34;98792.53;4957098;28;20208;-76
2022/08/16 05:11:09;;;;;;;7.13;6.53;;;;;;;19.92;66.16;98790.50;4955790;28;20953;-77
2022/08/16 05:13:37;;;;;;;8.27;7.40;;;;;;;20.23;65.21;98795.78;4956092;28;20657;-77
2022/08/16 05:16:03;;;;;;;8.30;6.73;;;;;;;20.49;64.17;98790.03;4956427;28;20876;-76
2022/08/16 05:18:30;;;;;;;7.10;6.40;;;;;;;20.77;63.31;98790.28;4955395;28;20484;-77
2022/08/16 05:20:57;;;;;;;7.00;6.40;;;;;;;21.07;62.51;98788.44;4955838;28;20463;-77
2022/08/16 05:23:22;;;;;;;7.20;6.57;;;;;;;21.43;61.26;98785.84;4952859;28;20482;-77
2022/08/16 05:25:48;;;;;;;7.20;6.60;;;;;;;21.76;60.50;98788.03;4968946;28;20213;-77
2022/08/16 05:28:16;;;;;;;7.20;6.50;;;;;;;22.15;59.46;98780.63;4955641;28;21022;-76
2022/08/16 05:30:46;;;;;;;7.63;7.03;;;;;;;22.48;58.54;98786.28;4948257;28;20576;-77
2022/08/16 05:33:20;;;;;;;7.83;7.10;;;;;;;22.82;57.65;98790.00;4951555;28;20978;-77
2022/08/16 05:35:48;;;;;;;7.60;6.90;;;;;;;23.14;56.54;98802.81;4958135;28;20878;-77
2022/08/16 05:38:18;;;;;;;8.73;7.77;;;;;;;23.47;55.95;98799.44;4955242;28;20971;-77
2022/08/16 05:40:44;;;;;;;8.23;6.87;;;;;;;23.75;54.82;98796.66;4968843;28;20461;-77
2022/08/16 05:43:10;;;;;;;7.93;5.90;;;;;;;23.98;54.00;98793.63;4951166;28;20887;-76
2022/08/16 05:45:36;;;;;;;6.70;6.10;;;;;;;24.23;53.41;98796.53;4952401;28;21035;-77
2022/08/16 05:48:03;;;;;;;6.20;5.60;;;;;;;24.49;52.66;98790.38;4953259;28;20233;-77
2022/08/16 05:50:44;;;;;;;7.40;6.63;;;;;;;24.87;51.51;98789.72;4967098;28;20445;-77
2022/08/16 05:53:09;;;;;;;6.80;6.10;;;;;;;25.19;50.96;98783.63;4950427;28;20908;-77
2022/08/16 05:55:40;;;;;;;6.63;6.03;;;;;;;25.45;49.90;98786.22;4955945;28;20220;-78
2022/08/16 05:58:05;;;;;;;6.87;6.27;;;;;;;25.63;49.75;98784.69;4970027;28;20457;-78
2022/08/16 06:00:31;;;;;;;7.90;6.50;;;;;;;25.81;49.11;98788.28;4951991;28;20239;-78
2022/08/16 06:02:56;;;;;;;6.90;6.30;;;;;;;25.98;48.39;98788.66;4957895;28;20548;-78
2022/08/16 06:05:51;;;;;;;8.00;6.23;;;;;;;26.20;47.69;98791.81;4956274;28;20301;-78
2022/08/16 06:08:16;;;;;;;6.43;5.83;;;;;;;26.37;47.64;98788.56;4971615;28;20561;-78
2022/08/16 06:10:45;;;;;;;6.30;5.80;;;;;;;26.47;47.10;98786.22;4965832;28;20321;-78
2022/08/16 06:13:11;;;;;;;8.90;5.77;;;;;;;26.57;47.26;98786.56;4968606;28;20459;-78
2022/08/16 06:15:37;;;;;;;7.10;6.43;;;;;;;26.73;46.55;98787.84;4964255;28;20239;-78
2022/08/16 06:18:03;;;;;;;7.50;6.67;;;;;;;26.88;46.17;98782.94;4955538;28;20500;-78
2022/08/16 06:20:29;;;;;;;7.70;6.60;;;;;;;27.10;45.64;98785.19;4968922;28;20303;-78
2022/08/16 06:22:57;;;;;;;6.63;5.77;;;;;;;27.35;45.25;98793.22;4956649;28;20248;-77
2022/08/16 06:25:26;;;;;;;7.53;5.87;;;;;;;27.63;44.41;98791.84;4957295;28;20451;-77
2022/08/16 06:27:53;;;;;;;6.70;5.70;;;;;;;27.87;44.11;98801.69;4956178;28;20453;-77
2022/08/16 06:30:20;;;;;;;7.30;6.50;;;;;;;28.07;43.31;98795.19;4955165;28;21024;-77
2022/08/16 06:32:47;;;;;;;7.63;7.00;;;;;;;28.18;42.85;98794.38;4970132;28;20538;-78
2022/08/16 06:35:14;;;;;;;10.07;7.90;;;;;;;28.32;42.67;98797.69;4952731;28;20473;-77
2022/08/16 06:37:41;;;;;;;7.97;7.13;;;;;;;28.41;42.51;98797.13;4947930;28;20462;-77
2022/08/16 06:40:09;;;;;;;7.87;7.10;;;;;;;28.37;42.27;98800.50;4955522;28;20473;-77
2022/08/16 06:42:39;;;;;;;8.00;7.30;;;;;;;28.37;42.53;98797.81;4952464;28;20798;-77
2022/08/16 06:45:10;;;;;;;9.60;7.43;;;;;;;28.55;42.31;98794.22;4954303;28;20468;-77
2022/08/16 06:47:39;;;;;;;7.30;6.53;;;;;;;28.77;41.61;98783.66;4966208;28;20445;-78
2022/08/16 06:50:05;;;;;;;7.57;6.87;;;;;;;28.84;41.51;98790.59;4968090;28;20861;-77
2022/08/16 06:52:42;;;;;;;9.03;7.43;;;;;;;28.77;41.39;98784.47;4954621;28;20761;-77
2022/08/16 06:55:09;;;;;;;7.70;6.00;;;;;;;28.77;41.50;98789.88;4953036;28;20832;-77
2022/08/16 06:57:36;;;;;;;8.60;7.70;;;;;;;28.96;41.63;98784.34;4949424;28;20929;-78
2022/08/16 07:00:11;;;;;;;7.23;6.53;;;;;;;29.01;41.07;98784.44;4950924;28;20573;-77
2022/08/16 07:02:43;;;;;;;7.50;6.83;;;;;;;28.94;41.33;98783.75;4956243;28;20708;-77
2022/08/16 07:05:10;;;;;;;7.70;6.97;;;;;;;28.95;41.25;98791.63;4966060;28;20454;-77
2022/08/16 07:07:38;;;;;;;8.13;7.33;;;;;;;28.94;41.00;98798.06;4967429;28;20461;-78
2022/08/16 07:10:08;;;;;;;7.20;6.50;;;;;;;28.76;41.46;98799.03;4950670;28;20937;-77
2022/08/16 07:12:35;;;;;;;7.57;6.93;;;;;;;28.57;42.00;98802.91;4969012;28;20469;-77
2022/08/16 07:15:02;;;;;;;7.53;6.43;;;;;;;28.63;41.64;98796.56;4973623;28;20605;-78
2022/08/16 07:17:28;;;;;;;7.30;6.63;;;;;;;28.78;41.79;98802.31;4953634;28;20476;-77
2022/08/16 07:19:54;;;;;;;10.33;7.57;;;;;;;28.96;41.35;98797.84;4950714;28;20490;-77
2022/08/16 07:22:24;;;;;;;7.67;6.97;;;;;;;29.19;40.65;98792.44;4952488;28;20466;-78
2022/08/16 07:24:50;;;;;;;8.33;6.87;;;;;;;29.42;40.20;98794.25;4969572;28;20908;-78
2022/08/16 07:27:16;;;;;;;6.20;5.70;;;;;;;29.64;39.80;98791.72;4967599;28;20683;-78
2022/08/16 07:29:41;;;;;;;7.23;6.53;;;;;;;29.74;39.56;98788.41;4952576;28;20279;-77
2022/08/16 07:32:08;;;;;;;8.50;6.43;;;;;;;29.85;39.28;98790.22;4950679;28;20212;-77
2022/08/16 07:34:33;;;;;;;10.37;5.90;;;;;;;29.79;39.36;98783.09;4954231;28;20497;-78
2022/08/16 07:37:04;;;;;;;7.33;6.67;;;;;;;29.91;39.16;98777.59;4949183;28;20598;-77
2022/08/16 07:39:47;;;;;;;9.73;6.37;;;;;;;30.26;38.51;98774.69;4951020;28;20227;-78
2022/08/16 07:42:14;;;;;;;6.80;5.83;;;;;;;30.69;37.80;98772.38;4951726;28;20497;-78
2022/08/16 07:44:39;;;;;;;6.47;5.87;;;;;;;30.75;37.85;98776.78;4950530;28;20494;-77
2022/08/16 07:47:05;;;;;;;8.43;6.73;;;;;;;30.85;37.35;98766.94;4952325;28;20241;-77
2022/08/16 07:49:31;;;;;;;5.40;4.93;;;;;;;31.01;36.89;98770.69;4946567;28;20320;-78
2022/08/16 07:51:56;;;;;;;6.50;5.90;;;;;;;31.02;36.57;98771.50;4950627;28;20210;-78
2022/08/16 07:54:27;;;;;;;6.00;5.17;;;;;;;31.05;36.00;98769.09;4960700;28;20197;-78
2022/08/16 07:56:54;;;;;;;5.50;5.00;;;;;;;31.23;36.08;98761.72;4950142;28;20487;-78
2022/08/16 07:59:19;;;;;;;7.40;5.30;;;;;;;31.57;35.30;98769.72;4949333;28;20513;-78
2022/08/16 08:01:45;;;;;;;6.50;5.20;;;;;;;31.78;34.75;98774.28;4949735;28;20213;-78
2022/08/16 08:04:12;;;;;;;13.63;7.60;;;;;;;32.05;34.26;98773.50;4950652;28;20234;-78
2022/08/16 08:06:39;;;;;;;8.10;6.27;;;;;;;32.38;33.49;98770.53;4964175;28;20803;-78
2022/08/16 08:09:13;;;;;;;5.90;5.50;;;;;;;32.60;33.11;98770.44;4952362;28;20558;-78
2022/08/16 08:11:38;;;;;;;6.53;5.47;;;;;;;32.63;32.68;98779.97;4947360;28;20890;-78
2022/08/16 08:14:06;;;;;;;7.33;5.40;;;;;;;32.83;32.48;98768.38;4952800;28;20213;-78
2022/08/16 08:16:37;;;;;;;5.50;5.00;;;;;;;33.08;32.02;98778.63;4949671;28;20523;-78
2022/08/16 08:19:03;;;;;;;6.23;4.87;;;;;;;33.28;31.34;98772.44;4949895;28;20473;-78
2022/08/16 08:21:32;;;;;;;5.93;5.43;;;;;;;33.44;30.91;98779.56;4952847;28;20530;-78
2022/08/16 08:23:58;;;;;;;8.83;4.70;;;;;;;33.42;31.09;98776.28;4969022;28;20589;-78
2022/08/16 08:26:24;;;;;;;5.70;5.20;;;;;;;33.43;31.04;98780.66;4947947;28;20537;-78
2022/08/16 08:28:49;;;;;;;9.17;5.00;;;;;;;33.49;30.79;98786.94;4947354;28;20769;-78
2022/08/16 08:31:15;;;;;;;6.30;5.70;;;;;;;33.30;30.92;98786.59;4951513;28;20474;-78
2022/08/16 08:33:41;;;;;;;5.70;5.20;;;;;;;33.18;30.93;98786.81;4969890;28;20213;-78
2022/08/16 08:36:09;;;;;;;5.47;5.07;;;;;;;33.15;30.68;98784.63;4949198;28;20210;-78
2022/08/16 08:38:36;;;;;;;5.70;5.30;;;;;;;32.88;31.01;98786.63;4950016;28;20672;-78
2022/08/16 08:41:07;;;;;;;6.07;5.57;;;;;;;32.39;31.72;98795.78;4950461;28;20932;-78
2022/08/16 08:43:34;;;;;;;5.87;5.30;;;;;;;32.28;31.60;98789.47;4955774;28;20500;-78
2022/08/16 08:46:01;;;;;;;6.97;5.07;;;;;;;32.01;32.33;98794.94;4950267;28;20450;-78
2022/08/16 08:48:27;;;;;;;6.43;5.83;;;;;;;31.83;32.30;98795.25;4955115;28;20471;-78
2022/08/16 08:50:52;;;;;;;4.93;4.50;;;;;;;31.53;32.79;98788.44;4946218;28;20221;-78
2022/08/16 08:53:18;;;;;;;5.83;5.40;;;;;;;31.45;32.71;98788.88;4949483;28;20492;-78
2022/08/16 08:55:48;;;;;;;6.33;5.70;;;;;;;31.48;33.27;98796.50;4966800;28;20553;-78
2022/08/16 08:58:14;;;;;;;5.83;5.30;;;;;;;31.48;33.50;98799.22;4950057;28;20422;-78
2022/08/16 09:01:00;;;;;;;8.23;6.00;;;;;;;31.47;33.53;98792.97;4950329;28;20469;-78
2022/08/16 09:03:25;;;;;;;5.90;5.50;;;;;;;31.41;33.80;98799.44;4948502;28;20488;-78
2022/08/16 09:05:51;;;;;;;5.63;5.10;;;;;;;31.23;33.85;98797.81;4951655;28;20324;-79
2022/08/16 09:08:17;;;;;;;6.67;6.03;;;;;;;30.88;34.20;98803.59;4966917;28;20305;-78
2022/08/16 09:10:54;;;;;;;5.30;4.90;;;;;;;30.77;34.76;98801.78;4943315;28;20458;-77
2022/08/16 09:13:21;;;;;;;8.60;5.97;;;;;;;30.57;34.92;98803.13;4950951;28;20516;-78
2022/08/16 09:15:48;;;;;;;5.27;4.77;;;;;;;30.62;35.23;98808.63;4947979;28;20727;-78
2022/08/16 09:18:16;;;;;;;5.13;4.73;;;;;;;30.77;34.80;98812.63;4932365;28;20938;-78
2022/08/16 09:20:43;;;;;;;7.67;4.63;;;;;;;30.83;33.98;98803.50;4964978;28;20475;-78
2022/08/16 09:23:09;;;;;;;5.77;5.37;;;;;;;30.91;33.63;98800.38;4951619;28;20484;-78
2022/08/16 09:25:40;;;;;;;6.93;5.00;;;;;;;30.96;34.11;98803.16;4948618;28;20469;-78
2022/08/16 09:28:08;;;;;;;5.37;4.87;;;;;;;31.08;33.85;98803.88;4963726;28;20467;-78
2022/08/16 09:30:34;;;;;;;5.63;5.13;;;;;;;31.06;33.72;98800.59;4947390;28;20898;-78
2022/08/16 09:33:00;;;;;;;6.57;5.60;;;;;;;31.14;34.01;98803.94;4949523;28;20571;-78
2022/08/16 09:35:27;;;;;;;10.97;4.83;;;;;;;31.30;33.53;98809.31;4954649;28;20344;-78
2022/08/16 09:37:52;;;;;;;4.87;4.47;;;;;;;31.47;33.66;98801.13;4947646;28;20479;-78
2022/08/16 09:40:17;;;;;;;5.10;4.70;;;;;;;31.59;32.86;98792.84;4948165;28;20987;-78
2022/08/16 09:42:43;;;;;;;5.53;5.13;;;;;;;31.60;33.13;98796.41;4949843;28;20226;-77
2022/08/16 09:45:09;;;;;;;8.03;5.20;;;;;;;31.59;33.13;98802.88;4951812;28;20396;-78
2022/08/16 09:47:39;;;;;;;6.53;5.00;;;;;;;31.55;32.86;98802.56;4950476;28;20615;-78
2022/08/16 09:50:10;;;;;;;7.10;6.40;;;;;;;31.49;33.10;98801.69;4950120;28;20922;-78
2022/08/16 09:52:36;;;;;;;6.43;5.83;;;;;;;31.46;32.69;98799.50;4953512;28;20491;-78
2022/08/16 09:55:10;;;;;;;5.53;5.03;;;;;;;31.48;32.64;98808.19;4952762;28;20968;-78
2022/08/16 09:57:36;;;;;;;5.60;5.10;;;;;;;31.56;32.65;98803.38;4951157;28;20556;-78
2022/08/16 10:00:07;;;;;;;7.00;5.80;;;;;;;31.66;31.89;98795.38;4949160;28;20480;-78
2022/08/16 10:02:40;;;;;;;5.57;4.67;;;;;;;31.62;31.86;98799.66;4952371;28;20485;-78
2022/08/16 10:05:06;;;;;;;5.67;4.80;;;;;;;31.58;31.67;98803.97;4955154;28;20492;-79
2022/08/16 10:07:32;;;;;;;4.37;4.07;;;;;;;31.64;31.92;98801.03;4954189;28;20828;-78
2022/08/16 10:09:58;;;;;;;5.80;4.40;;;;;;;31.77;31.41;98804.44;4953407;28;20487;-79
2022/08/16 10:15:19;;;;;;;5.87;4.60;;;;;;;31.94;30.11;98800.56;4953865;28;20759;-78
2022/08/16 10:17:46;;;;;;;4.60;4.30;;;;;;;31.81;29.56;98803.69;4953004;28;20834;-79
2022/08/16 10:20:13;;;;;;;4.43;4.13;;;;;;;31.80;28.91;98793.88;4955148;28;20536;-78
2022/08/16 10:22:40;;;;;;;5.30;4.83;;;;;;;31.74;28.91;98806.59;4955238;28;20509;-78
2022/08/16 10:25:06;;;;;;;6.93;4.47;;;;;;;31.67;29.40;98805.94;4955403;28;20472;-79
2022/08/16 10:27:34;;;;;;;4.97;4.53;;;;;;;31.67;29.38;98802.44;4955073;28;20463;-76
2022/08/16 10:30:00;;;;;;;5.37;4.80;;;;;;;31.74;29.86;98806.59;4949369;28;20474;-76
2022/08/16 10:32:25;;;;;;;5.80;5.20;;;;;;;31.72;30.63;98797.06;4950964;28;20525;-76
2022/08/16 10:34:51;;;;;;;6.63;6.03;;;;;;;31.64;30.61;98789.38;4949902;28;21041;-77
2022/08/16 10:37:16;;;;;;;5.37;4.83;;;;;;;31.70;30.70;98794.59;4946646;28;20224;-76
2022/08/16 10:39:42;;;;;;;7.60;4.77;;;;;;;31.91;30.41;98795.63;4956708;28;20221;-78
2022/08/16 10:42:09;;;;;;;5.50;4.93;;;;;;;32.10;30.35;98790.66;4956595;28;20225;-79
2022/08/16 10:44:34;;;;;;;7.77;4.67;;;;;;;32.20;30.07;98786.41;4956710;28;20241;-79
2022/08/16 10:47:00;;;;;;;4.80;4.40;;;;;;;32.41;29.57;98793.66;4954451;28;20477;-78
2022/08/16 10:49:25;;;;;;;5.80;5.20;;;;;;;32.46;29.74;98784.69;4955478;28;20238;-78
2022/08/16 10:51:54;;;;;;;4.90;4.60;;;;;;;32.38;29.17;98791.44;4951595;28;20212;-79
2022/08/16 10:54:20;;;;;;;4.67;4.00;;;;;;;32.34;29.52;98787.59;4954850;28;20374;-78
2022/08/16 10:56:45;;;;;;;5.70;4.20;;;;;;;32.42;29.14;98789.84;4949615;28;20539;-79
2022/08/16 10:59:11;;;;;;;5.23;4.50;;;;;;;32.46;29.32;98785.53;4950414;28;20642;-79
2022/08/16 11:01:36;;;;;;;4.90;4.33;;;;;;;32.48;28.89;98782.56;4953627;28;20701;-78
2022/08/16 11:04:02;;;;;;;5.10;4.68;;;;;;;32.51;29.03;98784.75;4950213;28;20499;-78
2022/08/16 11:06:28;;;;;;;4.70;4.40;;;;;;;32.33;28.73;98783.25;4950687;28;20218;-79
2022/08/16 11:08:55;;;;;;;4.40;3.80;;;;;;;32.16;28.61;98792.38;4951559;28;20234;-79
2022/08/16 11:11:21;;;;;;;4.87;4.37;;;;;;;32.13;28.73;98787.41;4952112;28;20557;-78
2022/08/16 11:13:48;;;;;;;4.83;4.47;;;;;;;32.00;29.12;98795.19;4951349;28;20454;-78
2022/08/16 11:16:14;;;;;;;5.17;4.73;;;;;;;31.91;29.20;98795.63;4951231;28;20469;-79
2022/08/16 11:18:39;;;;;;;4.93;4.57;;;;;;;31.74;28.69;98789.47;4954728;28;20491;-79
2022/08/16 11:21:06;;;;;;;4.43;4.13;;;;;;;31.46;28.51;98788.63;4953100;28;20245;-79
2022/08/16 11:23:31;;;;;;;4.70;4.30;;;;;;;31.37;28.68;98795.56;4950754;28;20391;-78
2022/08/16 11:25:57;;;;;;;4.20;3.90;;;;;;;31.41;28.78;98802.16;4947016;28;20606;-78
2022/08/16 11:28:23;;;;;;;5.50;4.53;;;;;;;31.50;28.41;98797.91;4951316;28;20221;-80
2022/08/16 11:30:49;;;;;;;3.83;3.53;;;;;;;31.61;28.55;98798.84;4951285;28;20237;-79
2022/08/16 11:33:15;;;;;;;5.00;4.50;;;;;;;31.58;28.60;98790.38;4951053;28;20463;-79
2022/08/16 11:35:42;;;;;;;5.77;4.00;;;;;;;31.52;28.62;98793.03;4955911;28;20457;-78